Time;durP1;ratioP1;P1;durP2;ratioP2;P2;SDS_P1;SDS_P2;PMS_P1;PMS_P2;Temp;Humidity;BMP_temperature;BMP_pressure;BME280_temperature;BME280_humidity;BME280_pressure;Samples;Min_cycle;Max_cycle;Signal;HPM_P1;HPM_P2
2023/05/03 00:00:51;;;;;;;4.60;2.45;;;;;;;5.71;69.54;102846.41;4917039;29;20023;-77
2023/05/03 00:03:16;;;;;;;6.60;2.60;;;;;;;5.72;69.94;102850.81;4917662;29;20048;-77
2023/05/03 00:05:42;;;;;;;4.60;2.40;;;;;;;5.69;70.34;102842.84;4900017;29;20024;-77
2023/05/03 00:08:07;;;;;;;6.55;2.70;;;;;;;5.69;70.28;102845.47;4917410;29;20044;-79
2023/05/03 00:10:32;;;;;;;9.18;2.55;;;;;;;5.68;69.87;102851.53;4916997;29;20055;-78
2023/05/03 00:12:58;;;;;;;6.25;2.67;;;;;;;5.64;70.66;102848.78;4903110;29;20040;-78
2023/05/03 00:15:24;;;;;;;6.60;2.63;;;;;;;5.59;70.65;102843.41;4900025;29;20071;-78
2023/05/03 00:17:50;;;;;;;9.63;2.60;;;;;;;5.55;70.56;102845.03;4884597;29;20040;-77
2023/05/03 00:20:18;;;;;;;3.92;2.38;;;;;;;5.59;69.43;102851.28;4906410;29;20036;-77
2023/05/03 00:22:43;;;;;;;6.63;2.60;;;;;;;5.57;70.64;102845.09;4900751;29;20114;-78
2023/05/03 00:25:09;;;;;;;7.40;2.35;;;;;;;5.54;70.40;102848.50;4894121;29;20430;-77
2023/05/03 00:27:35;;;;;;;5.43;2.58;;;;;;;5.50;70.87;102851.88;4908271;29;20052;-78
2023/05/03 00:30:01;;;;;;;5.50;2.50;;;;;;;5.46;71.19;102849.09;4899555;29;20024;-78
2023/05/03 00:32:26;;;;;;;5.65;2.50;;;;;;;5.47;71.82;102851.78;4889276;29;20033;-77
2023/05/03 00:34:53;;;;;;;3.45;2.28;;;;;;;5.45;71.85;102852.59;4885289;29;20432;-77
2023/05/03 00:37:19;;;;;;;6.78;2.90;;;;;;;5.41;72.21;102837.56;4902728;29;20036;-77
2023/05/03 00:39:45;;;;;;;14.55;3.00;;;;;;;5.43;72.04;102838.50;4926509;29;20032;-77
2023/05/03 00:42:10;;;;;;;5.35;2.60;;;;;;;5.41;72.64;102841.06;4926513;29;20042;-78
2023/05/03 00:44:36;;;;;;;9.50;2.63;;;;;;;5.40;72.49;102849.81;4916831;29;20475;-79
2023/05/03 00:47:02;;;;;;;4.90;2.58;;;;;;;5.39;72.54;102854.19;4899691;29;20043;-79
2023/05/03 00:49:28;;;;;;;6.88;2.75;;;;;;;5.39;71.99;102850.66;4899147;29;20036;-78
2023/05/03 00:51:53;;;;;;;9.88;2.70;;;;;;;5.35;72.58;102848.78;4880228;29;20320;-78
2023/05/03 00:54:20;;;;;;;5.38;2.58;;;;;;;5.34;72.54;102852.22;4899549;29;20123;-78
2023/05/03 00:56:46;;;;;;;3.65;2.53;;;;;;;5.33;72.39;102850.44;4916451;29;20055;-78
2023/05/03 00:59:12;;;;;;;5.93;2.70;;;;;;;5.29;72.77;102844.22;4909481;29;20088;-78
2023/05/03 01:01:37;;;;;;;7.70;2.55;;;;;;;5.28;72.11;102846.78;4896067;29;20038;-78
2023/05/03 01:04:05;;;;;;;8.95;3.03;;;;;;;5.22;73.01;102839.63;4901276;29;20047;-78
2023/05/03 01:06:42;;;;;;;7.82;2.50;;;;;;;5.17;73.49;102836.84;4914694;29;20048;-78
2023/05/03 01:09:23;;;;;;;7.65;2.78;;;;;;;5.18;73.01;102845.59;4899202;29;20074;-79
2023/05/03 01:12:10;;;;;;;10.30;3.13;;;;;;;5.16;71.95;102842.91;4916050;29;20047;-79
2023/05/03 01:15:06;;;;;;;8.57;2.80;;;;;;;5.12;73.19;102840.16;4898911;29;20499;-79
2023/05/03 01:17:46;;;;;;;9.85;3.28;;;;;;;5.09;73.50;102840.91;4899447;29;20487;-78
2023/05/03 01:20:20;;;;;;;8.43;3.03;;;;;;;5.05;74.03;102836.44;4893801;29;20038;-78
2023/05/03 01:22:55;;;;;;;7.72;2.83;;;;;;;5.04;73.57;102844.25;4885972;29;20078;-78
2023/05/03 01:25:20;;;;;;;10.65;2.90;;;;;;;5.03;73.90;102848.63;4916097;29;20063;-78
2023/05/03 01:27:46;;;;;;;6.18;2.80;;;;;;;4.99;74.13;102856.34;4916189;29;20036;-78
2023/05/03 01:30:12;;;;;;;7.45;2.60;;;;;;;4.96;73.14;102860.63;4897582;29;20044;-81
2023/05/03 01:33:03;;;;;;;7.00;2.40;;;;;;;4.97;73.93;102853.69;4879346;29;20032;-81
2023/05/03 01:35:47;;;;;;;9.32;2.92;;;;;;;4.97;74.32;102861.56;4896928;29;20361;-81
2023/05/03 01:38:13;;;;;;;6.95;2.60;;;;;;;4.92;74.59;102857.84;4896989;29;20037;-81
2023/05/03 01:40:46;;;;;;;5.35;2.63;;;;;;;4.87;74.97;102856.81;4896772;29;20133;-81
2023/05/03 01:43:14;;;;;;;5.60;2.67;;;;;;;4.85;74.66;102856.78;4910635;29;20138;-81
2023/05/03 01:45:41;;;;;;;10.73;3.20;;;;;;;4.83;75.09;102854.94;4879754;29;20091;-81
2023/05/03 01:48:16;;;;;;;6.22;2.70;;;;;;;4.80;74.73;102854.81;4880375;29;20037;-81
2023/05/03 01:50:42;;;;;;;5.90;2.70;;;;;;;4.79;74.72;102853.91;4888642;29;20036;-81
2023/05/03 01:53:07;;;;;;;5.15;2.42;;;;;;;4.78;74.75;102859.13;4900043;29;20582;-81
2023/05/03 01:55:33;;;;;;;7.20;3.20;;;;;;;4.72;75.17;102862.41;4898597;29;20068;-81
2023/05/03 01:57:58;;;;;;;9.70;2.53;;;;;;;4.64;74.75;102856.03;4902540;29;20539;-81
2023/05/03 02:00:24;;;;;;;7.90;2.78;;;;;;;4.59;75.18;102855.88;4876925;29;20033;-81
2023/05/03 02:02:51;;;;;;;6.80;2.75;;;;;;;4.59;74.80;102861.09;4896924;29;20476;-81
2023/05/03 02:05:17;;;;;;;8.88;2.72;;;;;;;4.56;75.41;102854.88;4896383;29;20036;-81
2023/05/03 02:07:42;;;;;;;6.93;3.60;;;;;;;4.54;75.42;102857.44;4880025;29;20032;-81
2023/05/03 02:10:13;;;;;;;9.25;2.60;;;;;;;4.54;75.38;102860.06;4893026;29;20075;-81
2023/05/03 02:12:40;;;;;;;5.40;2.67;;;;;;;4.50;75.66;102861.69;4896771;29;20083;-81
2023/05/03 02:15:06;;;;;;;6.00;2.90;;;;;;;4.49;76.21;102859.00;4880098;29;20043;-81
2023/05/03 02:17:33;;;;;;;6.93;2.95;;;;;;;4.47;76.55;102855.44;4902557;29;20069;-81
2023/05/03 02:19:58;;;;;;;4.53;2.60;;;;;;;4.45;76.38;102849.22;4882429;29;20033;-81
2023/05/03 02:22:24;;;;;;;5.65;2.83;;;;;;;4.45;75.63;102846.59;4901684;29;20444;-81
2023/05/03 02:24:49;;;;;;;9.52;2.92;;;;;;;4.44;77.04;102848.34;4887109;29;20047;-81
2023/05/03 02:27:16;;;;;;;5.47;2.58;;;;;;;4.42;76.97;102847.38;4892905;29;20037;-81
2023/05/03 02:29:42;;;;;;;5.15;2.78;;;;;;;4.37;76.33;102833.22;4879267;29;20123;-81
2023/05/03 02:32:08;;;;;;;7.25;2.60;;;;;;;4.40;75.87;102833.34;4892917;29;20048;-81
2023/05/03 02:34:34;;;;;;;5.50;2.83;;;;;;;4.42;75.62;102828.13;4903749;29;20032;-81
2023/05/03 02:37:00;;;;;;;6.88;2.60;;;;;;;4.40;76.27;102829.81;4900592;29;20059;-81
2023/05/03 02:39:25;;;;;;;7.10;2.33;;;;;;;4.39;76.58;102826.31;4900242;29;20135;-81
2023/05/03 02:41:51;;;;;;;8.00;2.70;;;;;;;4.36;76.26;102820.94;4867705;29;20502;-81
2023/05/03 02:44:16;;;;;;;6.38;2.80;;;;;;;4.37;76.62;102819.22;4870182;29;20088;-81
2023/05/03 02:46:42;;;;;;;5.07;2.72;;;;;;;4.37;76.08;102813.97;4910687;29;20048;-81
2023/05/03 02:49:08;;;;;;;5.70;2.50;;;;;;;4.34;76.88;102804.25;4883796;29;20084;-81
2023/05/03 02:51:35;;;;;;;6.45;2.60;;;;;;;4.32;76.28;102798.94;4884469;29;20115;-80
2023/05/03 02:54:00;;;;;;;6.43;2.63;;;;;;;4.34;75.79;102801.66;4909912;29;20059;-80
2023/05/03 02:56:27;;;;;;;7.45;2.78;;;;;;;4.32;77.02;102796.34;4899453;29;20064;-80
2023/05/03 02:58:53;;;;;;;6.88;2.58;;;;;;;4.33;77.34;102794.63;4898725;29;20088;-81
2023/05/03 03:01:20;;;;;;;7.10;2.58;;;;;;;4.30;77.15;102790.16;4898228;29;20043;-80
2023/05/03 03:03:47;;;;;;;5.53;2.63;;;;;;;4.28;77.08;102797.09;4891559;29;20051;-80
2023/05/03 03:06:13;;;;;;;6.65;2.88;;;;;;;4.29;77.85;102803.22;4902588;29;20051;-80
2023/05/03 03:08:38;;;;;;;7.45;2.70;;;;;;;4.24;77.23;102805.66;4898645;29;20032;-80
2023/05/03 03:11:05;;;;;;;6.75;2.95;;;;;;;4.21;77.61;102810.81;4927196;29;20051;-81
2023/05/03 03:13:32;;;;;;;6.32;2.83;;;;;;;4.17;77.47;102822.00;4898867;29;20060;-81
2023/05/03 03:15:58;;;;;;;8.25;2.60;;;;;;;4.14;77.51;102823.66;4898858;29;20037;-80
2023/05/03 03:18:24;;;;;;;7.40;2.85;;;;;;;4.14;77.00;102824.53;4879700;29;20035;-81
2023/05/03 03:20:50;;;;;;;13.85;3.28;;;;;;;4.13;77.38;102812.28;4921078;29;20040;-80
2023/05/03 03:23:16;;;;;;;7.00;2.83;;;;;;;4.07;77.52;102823.41;4902578;29;20032;-80
2023/05/03 03:25:42;;;;;;;3.90;2.60;;;;;;;4.06;77.56;102834.75;4914153;29;20055;-80
2023/05/03 03:28:07;;;;;;;9.30;3.05;;;;;;;4.03;77.53;102832.03;4883164;29;20481;-81
2023/05/03 03:30:34;;;;;;;7.03;3.00;;;;;;;4.02;77.84;102829.31;4888185;29;20135;-81
2023/05/03 03:33:10;;;;;;;7.07;2.92;;;;;;;3.99;78.19;102826.59;4884619;29;20345;-81
2023/05/03 03:35:38;;;;;;;9.00;2.72;;;;;;;4.00;77.49;102825.75;4897750;29;20366;-81
2023/05/03 03:38:05;;;;;;;8.45;2.90;;;;;;;3.97;78.02;102816.03;4898049;29;20020;-80
2023/05/03 03:40:33;;;;;;;5.63;2.67;;;;;;;3.94;77.66;102812.44;4897631;29;20400;-81
2023/05/03 03:42:58;;;;;;;3.88;2.70;;;;;;;3.94;77.72;102821.19;4879815;29;20032;-81
2023/05/03 03:45:25;;;;;;;8.13;3.05;;;;;;;3.91;77.49;102820.16;4903347;29;20041;-82
2023/05/03 03:47:51;;;;;;;4.25;2.67;;;;;;;3.88;78.10;102813.06;4894181;29;20041;-81
2023/05/03 03:50:18;;;;;;;10.15;3.20;;;;;;;3.85;78.85;102811.22;4915764;29;20036;-81
2023/05/03 03:52:44;;;;;;;7.72;3.13;;;;;;;3.84;77.57;102817.31;4895502;29;20060;-81
2023/05/03 03:55:10;;;;;;;7.85;3.00;;;;;;;3.79;77.82;102812.75;4898209;29;20124;-81
2023/05/03 03:57:36;;;;;;;7.88;3.05;;;;;;;3.76;78.55;102815.22;4900626;29;20072;-81
2023/05/03 04:00:04;;;;;;;10.30;3.00;;;;;;;3.71;78.63;102816.78;4882634;29;20095;-81
2023/05/03 04:02:38;;;;;;;6.00;3.15;;;;;;;3.65;79.29;102823.59;4912492;29;20036;-81
2023/05/03 04:05:06;;;;;;;8.98;3.13;;;;;;;3.64;78.94;102829.69;4884859;29;20044;-81
2023/05/03 04:07:32;;;;;;;6.82;3.33;;;;;;;3.62;78.87;102822.59;4898043;29;20074;-80
2023/05/03 04:09:58;;;;;;;8.90;3.63;;;;;;;3.63;79.45;102821.75;4913301;29;20075;-80
2023/05/03 04:12:24;;;;;;;14.15;3.42;;;;;;;3.61;79.29;102828.63;4898168;29;20032;-80
2023/05/03 04:14:50;;;;;;;9.15;3.08;;;;;;;3.59;79.38;102825.09;4899754;29;20037;-80
2023/05/03 04:17:16;;;;;;;6.63;3.08;;;;;;;3.60;80.18;102829.50;4909541;29;20092;-81
2023/05/03 04:19:42;;;;;;;8.95;3.28;;;;;;;3.58;79.77;102828.53;4888434;29;20044;-82
2023/05/03 04:22:09;;;;;;;6.20;3.28;;;;;;;3.59;80.02;102835.59;4921841;29;20132;-81
2023/05/03 04:24:38;;;;;;;6.90;3.20;;;;;;;3.58;80.14;102831.16;4910466;29;20119;-81
2023/05/03 04:27:05;;;;;;;11.13;3.10;;;;;;;3.56;80.16;102832.81;4898310;29;20036;-82
2023/05/03 04:29:34;;;;;;;7.28;3.13;;;;;;;3.60;79.83;102834.72;4897311;29;20036;-81
2023/05/03 04:32:01;;;;;;;5.93;3.05;;;;;;;3.60;80.21;102835.63;4896412;29;20059;-81
2023/05/03 04:34:29;;;;;;;10.30;3.03;;;;;;;3.60;80.17;102829.50;4881863;29;20403;-81
2023/05/03 04:36:55;;;;;;;7.20;3.30;;;;;;;3.59;79.92;102841.69;4896987;29;20032;-82
2023/05/03 04:39:21;;;;;;;6.57;3.28;;;;;;;3.57;80.11;102840.75;4902158;29;20103;-81
2023/05/03 04:41:47;;;;;;;4.40;3.08;;;;;;;3.59;80.75;102849.56;4906155;29;20092;-82
2023/05/03 04:44:13;;;;;;;10.20;3.75;;;;;;;3.61;80.28;102857.47;4881082;29;20040;-82
2023/05/03 04:46:40;;;;;;;13.77;3.40;;;;;;;3.61;80.09;102861.00;4904636;29;20039;-81
2023/05/03 04:49:06;;;;;;;6.80;3.17;;;;;;;3.66;80.61;102871.66;4901944;29;20051;-81
2023/05/03 04:51:32;;;;;;;7.18;3.70;;;;;;;3.61;80.64;102876.72;4896718;29;20040;-81
2023/05/03 04:53:58;;;;;;;12.05;3.72;;;;;;;3.65;80.71;102883.84;4912124;29;20064;-82
2023/05/03 04:56:25;;;;;;;9.45;3.63;;;;;;;3.65;80.65;102883.84;4911904;29;20100;-82
2023/05/03 04:58:54;;;;;;;8.90;3.50;;;;;;;3.72;80.97;102887.63;4896357;29;20051;-82
2023/05/03 05:01:26;;;;;;;7.18;3.13;;;;;;;3.79;80.18;102899.25;4912693;29;20542;-80
2023/05/03 05:03:55;;;;;;;6.55;3.08;;;;;;;3.83;80.48;102896.81;4915092;29;20087;-80
2023/05/03 05:06:27;;;;;;;9.32;3.30;;;;;;;3.90;81.61;102899.66;4915498;29;20047;-81
2023/05/03 05:08:56;;;;;;;9.57;3.70;;;;;;;3.94;81.55;102896.31;4931138;28;20036;-80
2023/05/03 05:11:22;;;;;;;11.18;3.60;;;;;;;3.99;81.10;102898.28;4915232;29;20028;-80
2023/05/03 05:13:48;;;;;;;6.38;3.60;;;;;;;4.00;81.11;102899.16;4931326;28;20043;-80
2023/05/03 05:16:16;;;;;;;7.32;3.35;;;;;;;4.05;81.05;102890.63;4915508;29;20032;-81
2023/05/03 05:18:49;;;;;;;9.90;3.75;;;;;;;4.10;81.26;102893.41;4914303;29;20069;-81
2023/05/03 05:21:16;;;;;;;6.93;3.40;;;;;;;4.17;81.69;102892.81;4898387;29;20043;-81
2023/05/03 05:23:42;;;;;;;9.13;3.20;;;;;;;4.23;81.27;102898.31;4915578;29;20036;-80
2023/05/03 05:26:07;;;;;;;6.55;3.58;;;;;;;4.30;81.43;102895.09;4886410;29;20515;-80
2023/05/03 05:28:37;;;;;;;8.57;3.60;;;;;;;4.37;81.22;102892.66;4915377;29;20499;-81
2023/05/03 05:31:03;;;;;;;6.35;3.53;;;;;;;4.44;81.16;102892.06;4914574;29;20161;-81
2023/05/03 05:33:29;;;;;;;4.80;3.58;;;;;;;4.50;80.93;102900.13;4917673;29;20043;-80
2023/05/03 05:35:56;;;;;;;8.90;4.00;;;;;;;4.59;80.47;102903.09;4911497;29;20051;-79
2023/05/03 05:38:21;;;;;;;11.98;4.13;;;;;;;4.66;79.97;102893.72;4911472;29;20036;-82
2023/05/03 05:40:49;;;;;;;6.70;4.00;;;;;;;4.75;80.06;102899.31;4909550;29;20040;-82
2023/05/03 05:43:14;;;;;;;13.20;4.20;;;;;;;4.82;79.82;102893.44;4897590;29;20037;-82
2023/05/03 05:45:43;;;;;;;8.82;3.90;;;;;;;4.90;79.93;102897.19;4911559;29;20131;-82
2023/05/03 05:48:09;;;;;;;8.38;4.28;;;;;;;5.01;79.84;102901.91;4896282;29;20164;-82
2023/05/03 05:50:35;;;;;;;10.88;4.45;;;;;;;5.09;79.51;102900.44;4911554;29;20032;-82
2023/05/03 05:53:07;;;;;;;12.13;4.50;;;;;;;5.14;79.03;102896.22;4897343;29;20076;-82
2023/05/03 05:55:36;;;;;;;10.05;4.53;;;;;;;5.28;79.26;102904.59;4892781;29;20501;-82
2023/05/03 05:58:02;;;;;;;10.00;4.13;;;;;;;5.37;78.60;102905.78;4880008;29;20101;-83
2023/05/03 06:00:35;;;;;;;9.48;4.80;;;;;;;5.47;78.66;102900.84;4880504;29;20492;-83
2023/05/03 06:03:01;;;;;;;15.20;4.30;;;;;;;5.54;78.22;102901.06;4882966;29;20050;-82
2023/05/03 06:05:26;;;;;;;11.80;4.43;;;;;;;5.63;77.78;102897.81;4914385;29;20531;-82
2023/05/03 06:07:52;;;;;;;6.03;4.35;;;;;;;5.71;77.58;102898.06;4898143;29;20153;-82
2023/05/03 06:10:18;;;;;;;9.10;4.20;;;;;;;5.79;77.71;102894.84;4880327;29;20389;-82
2023/05/03 06:12:47;;;;;;;9.75;4.13;;;;;;;5.86;77.19;102895.00;4879817;29;20044;-82
2023/05/03 06:15:17;;;;;;;6.72;4.10;;;;;;;6.00;77.33;102899.00;4893225;29;20384;-82
2023/05/03 06:17:44;;;;;;;11.27;4.03;;;;;;;6.11;77.11;102886.16;4880128;29;20097;-82
2023/05/03 06:20:10;;;;;;;8.02;3.97;;;;;;;6.23;76.53;102891.75;4901967;29;20132;-82
2023/05/03 06:22:37;;;;;;;12.73;4.15;;;;;;;6.30;75.64;102885.84;4889773;29;20036;-82
2023/05/03 06:25:03;;;;;;;8.45;3.60;;;;;;;6.37;74.59;102882.53;4898302;29;20159;-82
2023/05/03 06:27:29;;;;;;;6.10;3.28;;;;;;;6.43;75.18;102888.00;4907118;29;20073;-82
2023/05/03 06:29:56;;;;;;;13.25;3.92;;;;;;;6.52;75.40;102887.34;4896831;29;20488;-83
2023/05/03 06:32:22;;;;;;;12.05;4.18;;;;;;;6.59;75.06;102891.03;4879030;29;20085;-82
2023/05/03 06:34:49;;;;;;;9.50;3.70;;;;;;;6.66;75.29;102880.72;4880297;29;20105;-82
2023/05/03 06:37:15;;;;;;;7.35;3.85;;;;;;;6.75;74.87;102879.16;4897717;29;20048;-82
2023/05/03 06:39:41;;;;;;;7.95;3.47;;;;;;;6.82;74.21;102879.38;4884915;29;20055;-83
2023/05/03 06:42:07;;;;;;;7.72;3.67;;;;;;;6.94;74.35;102876.16;4897117;29;20441;-82
2023/05/03 06:44:36;;;;;;;8.55;3.92;;;;;;;7.05;74.67;102876.47;4879929;29;20461;-82
2023/05/03 06:47:02;;;;;;;8.63;3.80;;;;;;;7.14;73.66;102871.41;4880176;29;20083;-82
2023/05/03 06:49:28;;;;;;;7.10;3.40;;;;;;;7.24;73.78;102862.84;4864670;29;20457;-82
2023/05/03 06:51:53;;;;;;;10.00;4.53;;;;;;;7.35;73.22;102870.16;4879838;29;20497;-82
2023/05/03 06:54:19;;;;;;;11.30;4.40;;;;;;;7.45;73.19;102870.41;4880176;29;20044;-82
2023/05/03 06:56:45;;;;;;;7.72;3.97;;;;;;;7.60;73.00;102866.34;4886759;29;20044;-83
2023/05/03 06:59:11;;;;;;;6.25;4.18;;;;;;;7.69;72.30;102869.16;4886429;29;20052;-83
2023/05/03 07:01:36;;;;;;;5.72;3.90;;;;;;;7.83;71.12;102873.00;4880160;29;20033;-83
2023/05/03 07:04:02;;;;;;;10.50;3.70;;;;;;;7.90;70.56;102869.66;4895703;29;20029;-83
2023/05/03 07:06:27;;;;;;;9.70;3.85;;;;;;;7.98;69.50;102875.09;4882752;29;20040;-83
2023/05/03 07:08:53;;;;;;;7.70;3.20;;;;;;;8.07;68.83;102870.03;4874382;29;20037;-83
2023/05/03 07:11:22;;;;;;;8.10;3.78;;;;;;;8.13;69.14;102867.50;4893023;29;20130;-83
2023/05/03 07:13:52;;;;;;;6.80;3.20;;;;;;;8.28;69.05;102877.47;4886945;29;20059;-83
2023/05/03 07:16:19;;;;;;;10.10;3.53;;;;;;;8.39;67.87;102869.78;4914240;29;20155;-83
2023/05/03 07:18:46;;;;;;;9.07;3.42;;;;;;;8.50;67.38;102873.53;4878859;29;20104;-83
2023/05/03 07:21:12;;;;;;;6.00;3.35;;;;;;;8.57;65.20;102867.53;4891237;29;20337;-83
2023/05/03 07:23:38;;;;;;;5.80;3.92;;;;;;;8.68;65.96;102874.75;4882581;29;20100;-82
2023/05/03 07:26:04;;;;;;;9.30;2.95;;;;;;;8.77;64.84;102869.66;4909724;29;20131;-82
2023/05/03 07:28:29;;;;;;;4.30;3.08;;;;;;;8.84;64.04;102863.63;4902956;29;20033;-83
2023/05/03 07:30:55;;;;;;;13.07;3.60;;;;;;;8.92;63.97;102863.75;4907645;29;20123;-82
2023/05/03 07:33:21;;;;;;;8.05;3.38;;;;;;;9.00;63.24;102860.38;4885985;29;20037;-82
2023/05/03 07:35:47;;;;;;;10.65;2.78;;;;;;;9.09;63.01;102861.38;4882623;29;20469;-83
2023/05/03 07:38:12;;;;;;;11.27;3.50;;;;;;;9.20;62.32;102851.91;4903262;29;20115;-83
2023/05/03 07:40:40;;;;;;;6.18;2.95;;;;;;;9.24;62.08;102843.13;4882408;29;20127;-83
2023/05/03 07:43:06;;;;;;;7.68;3.03;;;;;;;9.36;62.15;102845.09;4906206;29;20024;-83
2023/05/03 07:45:31;;;;;;;6.57;3.20;;;;;;;9.47;62.32;102843.50;4889044;29;20051;-83
2023/05/03 07:47:57;;;;;;;8.05;3.13;;;;;;;9.62;61.86;102838.44;4888153;29;20096;-83
2023/05/03 07:50:22;;;;;;;9.75;3.33;;;;;;;9.75;61.78;102834.19;4910781;29;20789;-82
2023/05/03 07:52:51;;;;;;;10.32;3.40;;;;;;;9.81;60.01;102828.06;4903787;29;20072;-83
2023/05/03 07:55:18;;;;;;;8.98;3.00;;;;;;;9.85;59.09;102833.44;4899538;29;20629;-83
2023/05/03 07:57:44;;;;;;;5.90;2.72;;;;;;;9.93;59.18;102822.94;4882291;29;20175;-83
2023/05/03 08:00:11;;;;;;;4.95;2.67;;;;;;;10.01;58.16;102826.56;4882057;29;20127;-83
2023/05/03 08:02:40;;;;;;;5.85;2.40;;;;;;;10.08;57.91;102811.66;4898935;29;20039;-83
2023/05/03 08:05:06;;;;;;;11.02;2.92;;;;;;;10.17;57.58;102814.41;4898920;29;20045;-83
2023/05/03 08:07:32;;;;;;;5.45;2.63;;;;;;;10.23;56.23;102813.59;4882425;29;20029;-83
2023/05/03 08:09:58;;;;;;;8.00;2.50;;;;;;;10.35;56.91;102810.22;4902418;29;20036;-83
2023/05/03 08:12:27;;;;;;;9.60;2.58;;;;;;;10.49;55.84;102798.91;4917756;29;20028;-83
2023/05/03 08:14:53;;;;;;;6.47;2.85;;;;;;;10.59;55.72;102786.63;4901669;29;20044;-82
2023/05/03 08:17:19;;;;;;;6.85;2.70;;;;;;;10.67;54.95;102789.34;4898901;29;20025;-83
2023/05/03 08:19:46;;;;;;;5.75;2.65;;;;;;;10.77;54.83;102794.72;4895776;29;20185;-82
2023/05/03 08:22:11;;;;;;;5.70;2.75;;;;;;;10.90;54.10;102805.44;4881902;29;20505;-83
2023/05/03 08:24:37;;;;;;;8.60;3.35;;;;;;;10.98;54.10;102809.06;4910236;29;20319;-83
2023/05/03 08:27:04;;;;;;;6.85;2.60;;;;;;;11.14;56.34;102799.44;4899791;29;20045;-83
2023/05/03 08:29:30;;;;;;;6.85;2.80;;;;;;;11.32;54.51;102812.81;4866133;29;20041;-82
2023/05/03 08:31:57;;;;;;;7.05;2.83;;;;;;;11.38;53.28;102796.94;4897280;29;20433;-83
2023/05/03 08:34:22;;;;;;;6.80;2.72;;;;;;;11.43;52.99;102796.97;4884876;29;20492;-83
2023/05/03 08:36:48;;;;;;;9.75;2.97;;;;;;;11.54;53.04;102792.59;4894432;29;20039;-83
2023/05/03 08:39:14;;;;;;;9.20;2.92;;;;;;;11.62;52.27;102798.88;4865955;29;20036;-83
2023/05/03 08:41:40;;;;;;;5.80;2.97;;;;;;;11.64;52.75;102790.88;4898030;29;20028;-83
2023/05/03 08:44:07;;;;;;;6.32;3.17;;;;;;;11.66;52.01;102788.25;4899015;29;20556;-83
2023/05/03 08:46:35;;;;;;;7.85;3.05;;;;;;;11.77;52.69;102783.84;4916967;29;20029;-83
2023/05/03 08:49:02;;;;;;;8.38;3.25;;;;;;;11.90;52.67;102785.75;4887253;29;20040;-82
2023/05/03 08:51:27;;;;;;;7.20;2.50;;;;;;;11.97;52.00;102781.34;4910948;29;20067;-83
2023/05/03 08:53:53;;;;;;;5.35;3.00;;;;;;;12.05;52.50;102790.22;4905734;29;20083;-83
2023/05/03 08:56:29;;;;;;;6.45;2.88;;;;;;;12.25;53.25;102801.78;4898041;29;20028;-82
2023/05/03 08:58:55;;;;;;;5.35;2.53;;;;;;;12.45;50.72;102801.81;4897958;29;20444;-82
2023/05/03 09:01:20;;;;;;;11.13;2.88;;;;;;;12.66;50.83;102789.41;4900942;29;20139;-82
2023/05/03 09:03:50;;;;;;;4.10;2.78;;;;;;;12.85;49.81;102798.28;4916705;29;20051;-82
2023/05/03 09:06:26;;;;;;;8.13;3.13;;;;;;;12.99;50.65;102787.66;4886575;29;20068;-82
2023/05/03 09:08:53;;;;;;;6.32;2.95;;;;;;;13.06;47.82;102795.63;4891321;29;20404;-82
2023/05/03 09:11:28;;;;;;;10.50;3.50;;;;;;;13.03;48.23;102792.06;4881052;29;20403;-83
2023/05/03 09:14:07;;;;;;;6.20;3.20;;;;;;;13.07;49.43;102789.41;4897782;29;20048;-82
2023/05/03 09:16:33;;;;;;;6.13;3.30;;;;;;;13.14;49.79;102792.97;4897545;29;20040;-82
2023/05/03 09:19:05;;;;;;;4.47;2.70;;;;;;;13.11;47.97;102785.88;4878017;29;20089;-82
2023/05/03 09:21:31;;;;;;;8.30;3.08;;;;;;;13.16;47.16;102796.50;4891637;29;20416;-82
2023/05/03 09:23:57;;;;;;;5.18;2.72;;;;;;;13.27;49.02;102793.84;4902768;29;20024;-82
2023/05/03 09:26:34;;;;;;;9.55;3.42;;;;;;;13.41;47.50;102800.03;4887321;29;20075;-82
2023/05/03 09:29:01;;;;;;;8.10;2.60;;;;;;;13.39;47.85;102795.63;4886651;29;20487;-82
2023/05/03 09:31:32;;;;;;;5.28;2.75;;;;;;;13.43;47.31;102790.28;4904204;29;20036;-82
2023/05/03 09:33:57;;;;;;;5.22;2.90;;;;;;;13.51;47.36;102788.47;4895245;29;20433;-82
2023/05/03 09:36:24;;;;;;;12.80;3.78;;;;;;;13.60;46.84;102792.91;4891434;29;20111;-82
2023/05/03 09:38:56;;;;;;;8.52;3.25;;;;;;;13.79;46.87;102784.84;4899220;29;20515;-82
2023/05/03 09:41:29;;;;;;;8.38;3.40;;;;;;;13.94;46.38;102792.75;4884715;29;20048;-82
2023/05/03 09:44:01;;;;;;;5.35;2.85;;;;;;;14.04;47.87;102782.94;4897251;29;20040;-82
2023/05/03 09:46:28;;;;;;;8.45;3.10;;;;;;;14.10;45.72;102781.13;4879581;29;20044;-82
2023/05/03 09:48:56;;;;;;;7.50;3.47;;;;;;;14.22;45.36;102781.94;4896926;29;20043;-82
2023/05/03 09:51:24;;;;;;;7.18;3.25;;;;;;;14.31;46.22;102771.22;4897203;29;20045;-82
2023/05/03 09:53:50;;;;;;;8.55;3.10;;;;;;;14.40;45.91;102771.19;4909366;29;20108;-82
2023/05/03 09:56:16;;;;;;;8.68;3.20;;;;;;;14.50;44.56;102774.66;4895875;29;20028;-83
2023/05/03 09:58:42;;;;;;;7.20;3.30;;;;;;;14.41;44.43;102767.59;4897019;29;20060;-82
2023/05/03 10:01:09;;;;;;;9.65;3.20;;;;;;;14.49;44.56;102773.78;4879807;29;20040;-82
2023/05/03 10:03:45;;;;;;;5.57;2.80;;;;;;;14.58;44.36;102764.84;4887127;29;20036;-82
2023/05/03 10:06:22;;;;;;;6.47;3.20;;;;;;;14.75;44.41;102773.59;4900153;29;20119;-82
2023/05/03 10:08:53;;;;;;;9.88;3.00;;;;;;;14.92;44.91;102776.13;4910974;29;20043;-82
2023/05/03 10:11:23;;;;;;;5.18;3.17;;;;;;;14.97;43.19;102774.28;4896479;29;20488;-82
2023/05/03 10:13:48;;;;;;;8.40;3.22;;;;;;;14.99;42.53;102777.84;4896531;29;20024;-82
2023/05/03 10:16:38;;;;;;;7.15;2.90;;;;;;;15.11;43.54;102782.19;4895582;29;20072;-82
2023/05/03 10:19:13;;;;;;;9.75;3.20;;;;;;;15.26;42.33;102773.13;4883242;29;20053;-82
2023/05/03 10:22:06;;;;;;;8.32;3.25;;;;;;;15.37;43.13;102773.00;4908319;29;20059;-82
2023/05/03 10:24:36;;;;;;;6.22;3.00;;;;;;;15.51;42.74;102778.19;4914171;29;20110;-82
2023/05/03 10:27:05;;;;;;;6.00;3.00;;;;;;;15.61;41.92;102775.38;4896751;29;20056;-82
2023/05/03 10:29:44;;;;;;;6.20;2.78;;;;;;;15.69;41.79;102770.84;4896406;29;20024;-82
2023/05/03 10:32:38;;;;;;;9.00;3.33;;;;;;;15.95;42.57;102774.09;4895712;29;20032;-82
2023/05/03 10:35:11;;;;;;;8.80;3.38;;;;;;;16.02;41.34;102770.44;4893267;29;20049;-82
2023/05/03 10:37:39;;;;;;;7.00;3.05;;;;;;;16.03;40.94;102778.44;4900145;29;20476;-82
2023/05/03 10:40:16;;;;;;;6.38;3.03;;;;;;;16.04;41.08;102782.00;4921120;29;20050;-82
2023/05/03 10:42:55;;;;;;;11.27;3.30;;;;;;;16.06;40.51;102769.50;4898546;29;20056;-82
2023/05/03 10:45:27;;;;;;;5.25;3.00;;;;;;;16.05;40.33;102775.75;4906968;29;20226;-82
2023/05/03 10:48:10;;;;;;;6.68;2.88;;;;;;;16.08;41.46;102784.59;4897892;29;20052;-82
2023/05/03 10:50:40;;;;;;;7.40;3.13;;;;;;;16.20;42.36;102769.31;4910708;29;20040;-82
2023/05/03 10:53:05;;;;;;;11.35;3.40;;;;;;;16.34;40.82;102764.63;4908718;29;20166;-82
2023/05/03 10:55:32;;;;;;;7.07;3.25;;;;;;;16.51;39.74;102759.00;4896592;29;20559;-82
2023/05/03 10:57:59;;;;;;;8.30;3.13;;;;;;;16.52;39.38;102750.97;4896528;29;20028;-82
2023/05/03 11:00:43;;;;;;;5.70;3.03;;;;;;;16.59;40.18;102758.88;4899687;29;20075;-82
2023/05/03 11:03:34;;;;;;;6.57;3.00;;;;;;;16.66;40.52;102760.53;4911901;29;20025;-82
2023/05/03 11:06:01;;;;;;;6.65;3.13;;;;;;;16.77;38.92;102748.75;4914126;29;20107;-82
2023/05/03 11:08:36;;;;;;;9.32;2.90;;;;;;;16.94;39.24;102755.66;4898531;29;20480;-82
2023/05/03 11:11:08;;;;;;;8.18;2.83;;;;;;;17.08;38.26;102750.91;4899637;29;20100;-82
2023/05/03 11:13:35;;;;;;;6.72;3.13;;;;;;;17.18;37.83;102747.16;4899287;29;20041;-82
2023/05/03 11:16:03;;;;;;;6.13;2.92;;;;;;;17.33;38.37;102740.63;4910877;29;20032;-82
2023/05/03 11:18:30;;;;;;;9.50;3.03;;;;;;;17.47;38.86;102732.31;4901115;29;20041;-82
2023/05/03 11:20:56;;;;;;;6.68;2.97;;;;;;;17.41;37.85;102740.47;4897936;29;20052;-82
2023/05/03 11:23:27;;;;;;;12.43;3.22;;;;;;;17.60;39.54;102728.44;4895727;29;20044;-82
2023/05/03 11:25:52;;;;;;;;;;;;;;;17.89;40.99;102731.44;4914198;29;20649;-83
2023/05/03 11:28:18;;;;;;;9.45;3.20;;;;;;;18.12;38.30;102733.59;4928089;29;19918;-82
2023/05/03 11:30:45;;;;;;;5.47;3.20;;;;;;;18.21;37.01;102730.72;4918202;29;20514;-81
2023/05/03 11:33:11;;;;;;;6.38;2.90;;;;;;;18.29;37.48;102720.66;4902623;29;20031;-82